Time;durP1;ratioP1;P1;durP2;ratioP2;P2;SDS_P1;SDS_P2;PMS_P1;PMS_P2;Temp;Humidity;BMP_temperature;BMP_pressure;BME280_temperature;BME280_humidity;BME280_pressure;Samples;Min_cycle;Max_cycle;Signal;HPM_P1;HPM_P2
2023/10/21 00:04:48;;;;;;;5.05;1.85;;;;;;;14.66;78.69;99636.19;10254825;28;96805;-76
2023/10/21 00:09:52;;;;;;;4.93;1.77;;;;;;;14.65;78.69;99643.28;10253026;28;98310;-76
2023/10/21 00:14:55;;;;;;;2.53;1.30;;;;;;;14.27;79.36;99644.06;10253921;28;96706;-76
2023/10/21 00:20:00;;;;;;;6.78;1.73;;;;;;;14.19;79.60;99646.38;10253007;28;97700;-76
2023/10/21 00:25:04;;;;;;;5.20;1.65;;;;;;;14.36;79.42;99641.69;10236487;28;96866;-76
2023/10/21 00:30:08;;;;;;;6.15;2.00;;;;;;;14.54;79.40;99637.81;10252559;28;96838;-76
2023/10/21 00:35:13;;;;;;;7.57;1.83;;;;;;;14.68;79.29;99644.88;10236451;28;97081;-76
2023/10/21 00:40:16;;;;;;;4.25;1.90;;;;;;;14.72;78.70;99639.28;10252870;28;96766;-75
2023/10/21 00:45:19;;;;;;;4.47;2.20;;;;;;;14.72;78.74;99639.28;10250956;28;98278;-76
2023/10/21 00:50:24;;;;;;;7.53;2.13;;;;;;;14.62;78.98;99632.03;10252193;28;97616;-76
2023/10/21 00:55:28;;;;;;;5.00;2.30;;;;;;;14.48;79.15;99635.59;10250435;28;99047;-76
2023/10/21 01:00:31;;;;;;;7.50;2.45;;;;;;;14.50;79.43;99643.44;10251104;28;98395;-75
2023/10/21 01:05:35;;;;;;;5.88;2.20;;;;;;;14.21;79.92;99647.13;10250775;28;96742;-76
2023/10/21 01:10:39;;;;;;;11.57;3.53;;;;;;;14.19;80.18;99628.69;10256584;28;96776;-76
2023/10/21 01:15:42;;;;;;;8.98;3.35;;;;;;;14.24;79.84;99633.69;10239489;28;98623;-76
2023/10/21 01:20:52;;;;;;;6.78;3.28;;;;;;;14.24;79.65;99621.31;10266337;28;96915;-76
2023/10/21 01:25:57;;;;;;;7.03;2.92;;;;;;;14.32;79.64;99620.78;10262016;28;96856;-75
2023/10/21 01:31:01;;;;;;;6.95;2.50;;;;;;;14.36;79.46;99622.31;10250896;28;96803;-75
2023/10/21 01:36:04;;;;;;;7.85;2.33;;;;;;;14.32;79.67;99629.59;10248649;28;96670;-75
2023/10/21 01:41:10;;;;;;;4.75;2.10;;;;;;;14.28;79.50;99654.53;10249862;28;96786;-76
2023/10/21 01:46:14;;;;;;;5.82;2.13;;;;;;;14.27;79.85;99636.97;10247587;28;98642;-76
2023/10/21 01:51:17;;;;;;;4.40;2.08;;;;;;;14.40;79.94;99640.53;10249884;28;96814;-76
2023/10/21 01:56:22;;;;;;;3.17;1.70;;;;;;;14.50;79.56;99643.44;10249215;28;96817;-76
2023/10/21 02:01:25;;;;;;;4.13;1.33;;;;;;;14.51;79.31;99645.13;10243091;28;97457;-76
2023/10/21 02:06:29;;;;;;;6.25;2.22;;;;;;;14.57;79.53;99634.16;10248227;28;98624;-76
2023/10/21 02:11:33;;;;;;;4.35;2.08;;;;;;;14.60;79.29;99620.69;10248106;28;96843;-76
2023/10/21 02:16:37;;;;;;;5.50;2.03;;;;;;;14.59;79.62;99622.50;10252663;28;96728;-76
2023/10/21 02:21:40;;;;;;;3.25;1.77;;;;;;;14.57;79.32;99623.56;10249247;28;98893;-76
2023/10/21 02:26:44;;;;;;;3.92;1.85;;;;;;;14.58;79.86;99612.00;10247925;28;97176;-76
2023/10/21 02:31:48;;;;;;;5.40;1.77;;;;;;;14.56;79.63;99612.09;10248792;28;96804;-76
2023/10/21 02:36:51;;;;;;;3.97;2.00;;;;;;;14.53;79.84;99619.41;10247875;28;97119;-76
2023/10/21 02:41:55;;;;;;;3.63;1.77;;;;;;;14.57;79.68;99620.91;10247930;28;96756;-76
2023/10/21 02:46:59;;;;;;;5.40;1.92;;;;;;;14.56;79.74;99619.19;10252897;28;96768;-76
2023/10/21 02:52:02;;;;;;;5.75;2.08;;;;;;;14.58;79.67;99615.50;10255551;28;98575;-76
2023/10/21 02:57:07;;;;;;;4.28;1.90;;;;;;;14.57;80.10;99607.66;10254388;28;98409;-76
2023/10/21 03:02:10;;;;;;;1.98;1.42;;;;;;;14.56;79.64;99606.81;10254442;28;97883;-76
2023/10/21 03:07:13;;;;;;;4.80;1.77;;;;;;;14.53;79.90;99596.44;10255181;28;96736;-76
2023/10/21 03:12:19;;;;;;;9.85;3.10;;;;;;;14.54;80.05;99599.94;10254499;28;96825;-75
2023/10/21 03:17:22;;;;;;;7.40;3.10;;;;;;;14.48;80.26;99597.69;10253374;28;98921;-75
2023/10/21 03:22:26;;;;;;;7.00;2.78;;;;;;;14.52;79.94;99591.25;10255052;28;97148;-75
2023/10/21 03:27:30;;;;;;;14.88;5.28;;;;;;;14.46;80.11;99576.59;10252938;28;98273;-75
2023/10/21 03:32:36;;;;;;;12.13;5.38;;;;;;;14.41;80.15;99585.78;10253030;28;96793;-75
2023/10/21 03:37:39;;;;;;;11.10;3.63;;;;;;;14.37;80.40;99585.16;10253813;28;96873;-75
2023/10/21 03:42:43;;;;;;;5.10;2.58;;;;;;;14.26;80.67;99590.31;10258665;28;96777;-75
2023/10/21 03:47:47;;;;;;;8.15;2.38;;;;;;;14.28;80.47;99598.97;10251432;28;96850;-75
2023/10/21 03:52:50;;;;;;;5.07;2.08;;;;;;;14.20;81.35;99609.22;10252644;28;99217;-76
2023/10/21 03:57:54;;;;;;;2.83;2.00;;;;;;;14.20;80.88;99611.84;10252593;28;96773;-76
2023/10/21 04:02:58;;;;;;;3.47;1.52;;;;;;;14.21;80.63;99602.13;10252521;28;96806;-76
2023/10/21 04:08:04;;;;;;;4.00;1.45;;;;;;;14.16;80.66;99612.16;10253022;28;98628;-76
2023/10/21 04:13:08;;;;;;;3.42;1.50;;;;;;;14.15;80.58;99611.31;10252677;28;98406;-75
2023/10/21 04:18:12;;;;;;;4.85;1.80;;;;;;;14.32;80.18;99613.72;10252472;28;98710;-76
2023/10/21 04:23:15;;;;;;;2.97;1.50;;;;;;;14.29;80.29;99623.66;10253317;28;96774;-75
2023/10/21 04:28:20;;;;;;;2.72;1.30;;;;;;;14.18;80.39;99620.84;10250742;28;96981;-75
2023/10/21 04:33:23;;;;;;;3.47;1.38;;;;;;;13.96;81.13;99605.47;10245264;28;96639;-76
2023/10/21 04:38:26;;;;;;;3.88;1.42;;;;;;;14.05;80.77;99612.00;10251290;28;96747;-76
2023/10/21 04:43:31;;;;;;;5.10;2.80;;;;;;;14.02;80.49;99607.72;10252334;28;97268;-76
2023/10/21 04:48:34;;;;;;;6.03;2.50;;;;;;;14.03;80.42;99621.81;10252939;28;96854;-76
2023/10/21 04:53:38;;;;;;;4.93;2.28;;;;;;;14.04;80.52;99618.25;10258943;28;96842;-77
2023/10/21 04:58:42;;;;;;;6.10;2.10;;;;;;;14.13;80.54;99602.63;10251619;28;96815;-76
2023/10/21 05:03:45;;;;;;;3.38;1.50;;;;;;;14.11;80.31;99611.59;10250509;28;96744;-76
2023/10/21 05:08:49;;;;;;;4.05;1.45;;;;;;;14.17;80.27;99614.72;10249857;28;96733;-76
2023/10/21 05:13:53;;;;;;;3.78;1.50;;;;;;;14.15;80.36;99619.25;10250814;28;98703;-76
2023/10/21 05:18:57;;;;;;;3.30;1.58;;;;;;;14.03;80.30;99616.53;10250740;28;96814;-77
2023/10/21 05:24:00;;;;;;;3.67;1.33;;;;;;;14.10;80.08;99623.13;10249759;28;98438;-77
2023/10/21 05:29:04;;;;;;;3.65;1.63;;;;;;;14.10;80.10;99626.63;10249891;28;96883;-76
2023/10/21 05:34:08;;;;;;;4.20;1.15;;;;;;;14.11;79.99;99624.81;10250505;28;96690;-76
2023/10/21 05:39:12;;;;;;;5.07;1.35;;;;;;;14.22;80.02;99627.63;10249418;28;96879;-76
2023/10/21 05:44:17;;;;;;;2.57;1.57;;;;;;;14.19;80.01;99622.53;10250096;28;96762;-77
2023/10/21 05:49:24;;;;;;;2.50;1.52;;;;;;;14.20;79.87;99625.09;10249482;28;96889;-76
2023/10/21 05:54:31;;;;;;;3.35;1.40;;;;;;;14.16;79.95;99635.97;10249496;28;96754;-76
2023/10/21 05:59:37;;;;;;;4.65;1.30;;;;;;;14.11;79.98;99638.03;10254476;28;97837;-77
2023/10/21 06:04:40;;;;;;;5.57;1.35;;;;;;;14.14;80.37;99628.13;10248923;28;97169;-77
2023/10/21 06:09:43;;;;;;;5.10;1.63;;;;;;;14.10;80.42;99639.00;10248903;28;96906;-77
2023/10/21 06:14:48;;;;;;;2.30;1.20;;;;;;;14.22;80.22;99643.50;10250076;28;96888;-76
2023/10/21 06:19:52;;;;;;;3.63;1.20;;;;;;;14.24;79.83;99642.47;10249697;28;96762;-76
2023/10/21 06:24:55;;;;;;;3.95;1.20;;;;;;;14.24;79.92;99638.97;10255895;28;97799;-77
2023/10/21 06:30:00;;;;;;;4.50;1.60;;;;;;;14.22;80.00;99633.78;10254712;28;96776;-76
2023/10/21 06:35:03;;;;;;;2.63;1.60;;;;;;;14.02;80.74;99630.72;10255871;28;96807;-76
2023/10/21 06:40:08;;;;;;;2.88;1.40;;;;;;;13.85;81.55;99630.91;10254203;28;97239;-76
2023/10/21 06:45:13;;;;;;;2.65;1.45;;;;;;;13.83;81.20;99640.72;10254520;28;96782;-76
2023/10/21 06:50:17;;;;;;;13.38;5.45;;;;;;;13.79;81.18;99632.13;10254573;28;96968;-76
2023/10/21 06:55:21;;;;;;;7.10;4.18;;;;;;;13.76;81.54;99631.47;10254428;28;96772;-76
2023/10/21 07:00:26;;;;;;;3.87;2.63;;;;;;;13.74;81.89;99636.00;10254425;28;97015;-76
2023/10/21 07:05:29;;;;;;;4.47;2.72;;;;;;;13.68;82.00;99635.44;10254955;28;98368;-76
2023/10/21 07:10:32;;;;;;;3.50;2.10;;;;;;;13.63;82.94;99640.16;10255409;28;96748;-76
2023/10/21 07:15:37;;;;;;;2.72;2.00;;;;;;;13.56;83.02;99648.56;10267164;22;97450;-82
2023/10/21 07:20:40;;;;;;;4.68;2.05;;;;;;;13.58;82.85;99663.41;10286169;28;96594;-81
2023/10/21 07:25:43;;;;;;;4.50;2.50;;;;;;;13.56;83.94;99673.22;10259989;28;98578;-79
2023/10/21 07:30:48;;;;;;;7.18;3.33;;;;;;;13.52;84.13;99676.97;10262382;28;97750;-79
2023/10/21 07:35:52;;;;;;;7.57;3.88;;;;;;;13.55;83.60;99681.22;10251571;28;98773;-84
2023/10/21 07:40:56;;;;;;;6.30;3.10;;;;;;;13.56;84.28;99682.91;10255561;28;97608;-81
2023/10/21 07:46:04;;;;;;;8.13;5.03;;;;;;;13.59;83.75;99691.50;10265887;28;96876;-84
2023/10/21 07:51:07;;;;;;;7.68;3.55;;;;;;;13.73;83.39;99692.47;10270424;28;96852;-75
2023/10/21 07:56:10;;;;;;;7.97;3.28;;;;;;;13.89;82.77;99696.72;10251292;28;98428;-79
2023/10/21 08:01:15;;;;;;;4.38;2.45;;;;;;;13.78;82.98;99706.28;10253579;28;96791;-79
2023/10/21 08:06:18;;;;;;;5.05;2.80;;;;;;;13.86;83.08;99704.84;10252966;28;97389;-75
2023/10/21 08:11:22;;;;;;;5.13;2.75;;;;;;;13.90;82.98;99709.00;10260570;28;98942;-72
2023/10/21 08:16:26;;;;;;;7.38;3.47;;;;;;;14.04;82.65;99716.97;10266500;28;97597;-72
2023/10/21 08:21:30;;;;;;;4.80;2.85;;;;;;;14.15;82.43;99711.84;10275537;28;96779;-73
2023/10/21 08:26:33;;;;;;;6.07;3.08;;;;;;;14.12;82.45;99732.38;10267299;28;96914;-73
2023/10/21 08:31:38;;;;;;;14.45;7.10;;;;;;;14.32;81.96;99731.97;10269818;28;96805;-72
2023/10/21 08:36:42;;;;;;;12.82;5.75;;;;;;;14.54;81.46;99724.38;10277590;28;97087;-72
2023/10/21 08:41:45;;;;;;;7.47;3.13;;;;;;;14.56;81.19;99733.91;10252878;28;97083;-72
2023/10/21 08:46:53;;;;;;;10.55;5.72;;;;;;;14.46;81.84;99738.09;10264710;28;96827;-72
2023/10/21 08:51:59;;;;;;;4.57;3.08;;;;;;;14.49;81.63;99729.94;10277203;28;96943;-72
2023/10/21 08:57:03;;;;;;;8.25;2.53;;;;;;;14.60;81.74;99723.97;10256876;28;96929;-73
2023/10/21 09:02:08;;;;;;;3.80;2.08;;;;;;;14.65;81.78;99728.03;10265301;28;96826;-72
2023/10/21 09:07:12;;;;;;;6.22;3.08;;;;;;;14.67;82.09;99728.78;10247816;28;98124;-73
2023/10/21 09:12:16;;;;;;;7.55;3.63;;;;;;;14.76;81.43;99736.13;10245530;28;96754;-73
2023/10/21 09:17:21;;;;;;;4.63;2.63;;;;;;;14.91;81.45;99731.63;10264660;28;97123;-74
2023/10/21 09:22:27;;;;;;;6.85;2.42;;;;;;;15.36;81.10;99720.66;10256488;28;96789;-74
2023/10/21 09:27:32;;;;;;;4.57;2.63;;;;;;;15.99;79.70;99727.78;10252030;28;96788;-73
2023/10/21 09:32:37;;;;;;;6.20;3.53;;;;;;;15.88;79.51;99732.06;10274293;28;97265;-73
2023/10/21 09:37:40;;;;;;;6.88;4.03;;;;;;;16.04;79.40;99754.84;10266007;28;96791;-73
2023/10/21 09:42:46;;;;;;;13.15;4.90;;;;;;;16.11;78.03;99750.81;10247154;28;96892;-73
2023/10/21 09:47:55;;;;;;;4.95;3.05;;;;;;;16.51;78.39;99761.22;10251203;28;96827;-73
2023/10/21 09:53:10;;;;;;;7.15;4.38;;;;;;;16.54;76.87;99765.44;10250406;28;97054;-73
2023/10/21 09:58:16;;;;;;;3.95;2.63;;;;;;;16.61;77.39;99764.91;10231472;28;97046;-73
2023/10/21 10:03:21;;;;;;;8.23;5.82;;;;;;;17.18;77.02;99759.78;10251090;28;98758;-73
2023/10/21 10:08:26;;;;;;;13.32;6.20;;;;;;;17.78;76.17;99739.22;10264938;28;96730;-73
2023/10/21 10:13:32;;;;;;;5.90;3.97;;;;;;;18.71;74.00;99732.72;10272418;28;96783;-73
2023/10/21 10:18:48;;;;;;;7.20;4.90;;;;;;;20.76;69.46;99723.81;10250210;28;96654;-74
2023/10/21 10:23:53;;;;;;;8.07;5.00;;;;;;;21.28;66.83;99719.97;10273352;28;97198;-74
2023/10/21 10:28:59;;;;;;;6.05;3.70;;;;;;;21.57;64.40;99702.06;10254363;28;98491;-74
2023/10/21 10:34:08;;;;;;;4.75;2.83;;;;;;;22.19;61.26;99701.50;10276009;28;96938;-73
2023/10/21 10:39:39;;;;;;;5.95;2.60;;;;;;;22.86;57.15;99702.00;10266631;28;96806;-75
2023/10/21 10:44:43;;;;;;;4.65;1.88;;;;;;;22.85;57.39;99703.00;10250816;28;96943;-74
2023/10/21 10:49:58;;;;;;;3.33;1.63;;;;;;;22.99;54.40;99698.94;10251280;28;96802;-74
2023/10/21 10:55:02;;;;;;;6.25;2.55;;;;;;;21.69;59.40;99695.56;10271684;28;97810;-74
2023/10/21 11:00:10;;;;;;;6.63;3.15;;;;;;;21.16;59.27;99697.84;10216907;28;96864;-74
2023/10/21 11:05:20;;;;;;;4.97;2.42;;;;;;;21.89;58.35;99677.56;10271101;28;97057;-74
2023/10/21 11:10:25;;;;;;;5.32;2.40;;;;;;;22.68;57.04;99681.47;10296862;28;96561;-74
2023/10/21 11:15:29;;;;;;;4.28;2.40;;;;;;;21.28;59.18;99685.16;10296530;28;96823;-74
2023/10/21 11:20:34;;;;;;;3.38;2.00;;;;;;;20.36;60.52;99678.41;10296066;28;96587;-73
2023/10/21 11:25:38;;;;;;;6.63;3.72;;;;;;;20.70;59.80;99672.72;10296364;28;96774;-73
2023/10/21 11:30:41;;;;;;;4.93;2.17;;;;;;;20.12;60.93;99669.84;10296074;28;96768;-73
2023/10/21 11:35:47;;;;;;;3.37;1.63;;;;;;;20.21;59.91;99669.06;10284545;28;96779;-75
2023/10/21 11:40:51;;;;;;;5.30;1.58;;;;;;;20.94;58.90;99666.00;10265531;28;96825;-72
2023/10/21 11:45:55;;;;;;;4.85;2.03;;;;;;;21.47;57.27;99659.22;10247830;28;96804;-73
2023/10/21 11:51:01;;;;;;;4.80;1.90;;;;;;;20.90;57.69;99653.03;10254381;28;97368;-73
2023/10/21 12:39:23;;;;;;;4.50;2.30;;;;;;;21.65;55.35;99616.47;10262710;28;98213;-73
2023/10/21 12:44:31;;;;;;;5.07;2.67;;;;;;;21.47;56.30;99607.50;10255696;28;98158;-73
2023/10/21 12:49:34;;;;;;;4.45;2.45;;;;;;;21.28;56.89;99604.88;10255589;28;97089;-73
2023/10/21 12:54:39;;;;;;;6.47;2.10;;;;;;;21.37;57.20;99595.97;10259899;28;96858;-73
2023/10/21 12:59:42;;;;;;;4.15;2.00;;;;;;;21.32;57.91;99592.91;10257472;28;97704;-73
2023/10/21 13:04:45;;;;;;;4.95;2.17;;;;;;;21.13;58.42;99579.53;10256641;28;97045;-74
2023/10/21 13:09:50;;;;;;;2.38;1.38;;;;;;;21.34;57.10;99578.41;10276823;28;96893;-73
2023/10/21 13:14:53;;;;;;;2.03;1.20;;;;;;;21.55;55.44;99574.66;10275021;28;97204;-73
2023/10/21 13:19:56;;;;;;;4.05;1.17;;;;;;;21.51;55.79;99574.09;10254391;28;96952;-73
2023/10/21 13:25:07;;;;;;;3.28;1.45;;;;;;;21.31;56.64;99578.66;10274343;28;97216;-73
2023/10/21 13:30:21;;;;;;;4.03;1.50;;;;;;;20.96;57.64;99580.25;10261225;28;96993;-73
2023/10/21 13:35:25;;;;;;;4.53;1.50;;;;;;;21.05;57.26;99579.41;10276123;28;96799;-73
2023/10/21 13:40:31;;;;;;;2.38;1.10;;;;;;;21.11;56.36;99577.00;10269123;28;96817;-73
2023/10/21 13:45:35;;;;;;;3.38;1.20;;;;;;;21.17;55.86;99568.41;10271987;28;96762;-74
2023/10/21 13:50:39;;;;;;;5.60;2.43;;;;;;;21.11;55.70;99560.09;10277591;28;96789;-74
2023/10/21 13:55:44;;;;;;;7.22;2.65;;;;;;;21.05;55.95;99560.69;10270918;28;96748;-73
2023/10/21 14:00:48;;;;;;;5.35;2.30;;;;;;;20.77;56.08;99558.88;10267399;28;98562;-73
2023/10/21 14:05:54;;;;;;;5.00;2.08;;;;;;;20.69;56.08;99564.91;10274480;28;97337;-73
2023/10/21 14:11:01;;;;;;;3.85;2.17;;;;;;;20.67;56.34;99566.06;10260747;28;96915;-74
2023/10/21 14:16:06;;;;;;;4.63;2.30;;;;;;;20.40;56.69;99558.72;10252483;28;96894;-74
2023/10/21 14:21:11;;;;;;;4.38;2.53;;;;;;;20.31;56.63;99555.06;10270131;28;96805;-73
2023/10/21 14:26:17;;;;;;;4.22;1.83;;;;;;;20.04;57.35;99570.00;10276991;28;98865;-75
2023/10/21 14:31:27;;;;;;;2.10;1.15;;;;;;;19.87;57.98;99568.84;10253080;28;97074;-76
2023/10/21 14:36:31;;;;;;;2.38;1.00;;;;;;;19.69;58.23;99570.47;10244749;28;97140;-76
2023/10/21 14:41:36;;;;;;;3.00;1.30;;;;;;;19.51;58.77;99579.22;10250261;28;96887;-76
2023/10/21 14:46:39;;;;;;;3.05;1.42;;;;;;;19.21;57.81;99580.00;10254036;28;97249;-75
2023/10/21 14:51:43;;;;;;;3.28;1.15;;;;;;;19.23;59.13;99581.56;10253683;28;96647;-76
2023/10/21 14:56:49;;;;;;;3.07;1.30;;;;;;;19.27;58.71;99580.34;10253496;28;96705;-76
2023/10/21 15:01:52;;;;;;;2.78;1.40;;;;;;;19.27;59.02;99580.34;10252522;28;97211;-76
2023/10/21 15:06:56;;;;;;;2.10;1.30;;;;;;;19.28;59.12;99573.19;10254262;28;96599;-76
2023/10/21 15:12:01;;;;;;;3.45;1.40;;;;;;;19.55;59.28;99567.28;10252591;28;97082;-76
2023/10/21 15:17:04;;;;;;;2.83;1.25;;;;;;;19.92;58.06;99566.63;10243578;28;96827;-76
2023/10/21 15:22:08;;;;;;;4.60;1.38;;;;;;;20.57;56.55;99562.53;10290123;28;96807;-76
2023/10/21 15:27:14;;;;;;;2.70;1.00;;;;;;;21.65;54.86;99559.41;10292817;28;96948;-76
2023/10/21 15:32:17;;;;;;;3.58;1.73;;;;;;;22.25;53.85;99556.13;10252046;28;97251;-76
2023/10/21 15:37:21;;;;;;;2.47;1.53;;;;;;;22.35;53.92;99564.97;10252028;28;96752;-76
2023/10/21 15:42:27;;;;;;;2.20;1.10;;;;;;;22.59;53.04;99567.91;10251962;28;96691;-76
2023/10/21 15:47:30;;;;;;;1.95;1.17;;;;;;;22.27;53.13;99573.78;10251661;28;97622;-76
2023/10/21 15:52:34;;;;;;;2.63;1.33;;;;;;;21.57;54.97;99568.19;10250957;28;96810;-76
2023/10/21 15:57:39;;;;;;;4.70;1.73;;;;;;;20.94;55.93;99560.81;10258030;28;97353;-76
2023/10/21 16:02:42;;;;;;;2.60;1.50;;;;;;;20.44;56.68;99559.28;10272860;28;97444;-77
2023/10/21 16:07:46;;;;;;;2.97;1.10;;;;;;;20.11;56.89;99550.63;10274339;28;97215;-77
2023/10/21 16:13:01;;;;;;;1.87;1.00;;;;;;;19.96;57.53;99553.84;10276157;28;99748;-77
2023/10/21 16:18:04;;;;;;;3.15;1.60;;;;;;;19.97;57.58;99551.03;10271829;28;96850;-78
2023/10/21 16:23:08;;;;;;;3.33;1.80;;;;;;;19.95;57.79;99557.47;10265302;28;96917;-78
2023/10/21 16:28:13;;;;;;;5.35;2.47;;;;;;;19.80;59.02;99558.84;10291361;28;97165;-77
2023/10/21 16:33:16;;;;;;;3.83;1.80;;;;;;;19.84;59.45;99566.44;10255560;28;96812;-77
2023/10/21 16:38:20;;;;;;;3.40;1.90;;;;;;;19.74;60.15;99570.91;10253371;28;96764;-77
2023/10/21 16:43:25;;;;;;;4.13;1.37;;;;;;;19.74;60.58;99560.22;10270785;28;96809;-78
2023/10/21 16:48:28;;;;;;;4.43;1.80;;;;;;;19.61;61.28;99566.78;10265489;28;96745;-77
2023/10/21 16:53:32;;;;;;;5.85;3.05;;;;;;;19.51;62.34;99569.38;10280640;28;96914;-78
2023/10/21 16:58:37;;;;;;;5.70;2.50;;;;;;;19.40;63.30;99563.25;10252706;28;96612;-77
2023/10/21 17:03:40;;;;;;;4.38;2.58;;;;;;;19.30;63.50;99568.56;10257335;28;96935;-77
2023/10/21 17:08:44;;;;;;;7.03;3.03;;;;;;;19.05;64.55;99571.63;10284748;28;97758;-79
2023/10/21 17:13:48;;;;;;;4.95;2.22;;;;;;;18.83;65.50;99577.09;10253134;28;96760;-77
2023/10/21 17:18:52;;;;;;;3.55;1.98;;;;;;;18.70;66.10;99582.59;10267958;28;98693;-77
2023/10/21 17:23:56;;;;;;;5.53;2.90;;;;;;;18.46;67.12;99581.97;10271564;28;96973;-77
2023/10/21 17:29:01;;;;;;;4.83;3.03;;;;;;;18.31;67.79;99579.69;10253238;28;96954;-79
2023/10/21 17:34:04;;;;;;;10.50;4.55;;;;;;;18.12;68.16;99580.34;10263169;28;97970;-77
2023/10/21 17:39:08;;;;;;;9.00;4.45;;;;;;;17.99;68.51;99579.63;10265645;28;96831;-78
2023/10/21 17:44:13;;;;;;;11.07;4.88;;;;;;;17.79;68.81;99586.56;10264116;28;98325;-77
2023/10/21 17:49:17;;;;;;;11.38;5.80;;;;;;;17.67;69.44;99592.00;10273084;28;96885;-80
2023/10/21 17:54:20;;;;;;;11.57;6.30;;;;;;;17.62;69.40;99596.84;10263144;28;97345;-77
2023/10/21 17:59:25;;;;;;;11.68;7.38;;;;;;;17.54;69.83;99607.22;10261408;28;96923;-78
2023/10/21 18:04:29;;;;;;;13.60;8.02;;;;;;;17.34;70.48;99605.25;10260020;28;97634;-79
2023/10/21 18:09:33;;;;;;;19.77;9.77;;;;;;;17.20;70.58;99616.09;10260693;28;96842;-79
2023/10/21 18:14:38;;;;;;;28.02;14.57;;;;;;;17.16;70.71;99606.63;10268275;28;96658;-79
2023/10/21 18:19:42;;;;;;;20.73;10.23;;;;;;;17.24;70.80;99614.91;10268399;28;96762;-79
2023/10/21 18:24:45;;;;;;;15.10;7.97;;;;;;;17.19;70.79;99612.56;10269918;28;96829;-79
2023/10/21 18:29:50;;;;;;;15.52;8.70;;;;;;;17.15;71.23;99608.47;10265276;28;96963;-79
2023/10/21 18:34:53;;;;;;;14.43;8.32;;;;;;;17.18;71.26;99610.88;10270218;28;97353;-79
2023/10/21 18:39:57;;;;;;;18.52;7.72;;;;;;;17.19;71.01;99617.06;10252799;28;96645;-79
2023/10/21 18:45:02;;;;;;;13.85;6.82;;;;;;;17.14;71.80;99622.72;10270514;28;96789;-79
2023/10/21 18:50:06;;;;;;;12.57;6.55;;;;;;;17.07;71.98;99629.47;10261383;28;96782;-79
2023/10/21 18:55:10;;;;;;;13.47;7.70;;;;;;;17.02;72.28;99640.44;10269408;28;96757;-79
2023/10/21 19:00:15;;;;;;;15.48;6.65;;;;;;;16.74;72.84;99640.00;10269921;28;96852;-78
2023/10/21 19:05:19;;;;;;;15.23;7.88;;;;;;;16.78;72.93;99633.47;10267757;28;96862;-77
2023/10/21 19:10:24;;;;;;;16.52;7.75;;;;;;;16.72;72.53;99640.06;10275429;28;96771;-76
2023/10/21 19:15:29;;;;;;;13.55;7.30;;;;;;;16.67;72.79;99628.13;10273667;28;96931;-78
2023/10/21 19:20:33;;;;;;;15.85;6.97;;;;;;;16.52;72.97;99637.19;10265128;28;97141;-77
2023/10/21 19:25:36;;;;;;;16.27;8.07;;;;;;;16.51;72.72;99624.91;10249053;28;98646;-79
2023/10/21 19:30:42;;;;;;;19.67;8.95;;;;;;;16.50;72.76;99628.50;10264554;28;97127;-79
2023/10/21 19:35:53;;;;;;;19.92;8.88;;;;;;;16.42;73.02;99630.88;10277307;28;97065;-79
2023/10/21 19:40:56;;;;;;;19.48;9.93;;;;;;;16.37;73.39;99627.69;10271709;28;96942;-79
2023/10/21 19:46:02;;;;;;;19.60;9.27;;;;;;;16.35;73.33;99619.84;10270993;22;98255;-83
2023/10/21 19:51:06;;;;;;;14.77;7.65;;;;;;;16.46;73.27;99621.75;10252721;28;96776;-84
2023/10/21 19:56:10;;;;;;;16.47;7.97;;;;;;;16.50;73.19;99625.84;10250350;28;98885;-82
2023/10/21 20:01:15;;;;;;;16.07;8.37;;;;;;;16.45;73.35;99623.53;10250508;28;97568;-83
2023/10/21 20:06:18;;;;;;;;;;;;;;;16.49;73.83;99627.66;10251668;28;96839;-80
2023/10/21 20:11:21;;;;;;;28.17;11.27;;;;;;;16.46;72.88;99629.69;10250154;28;97030;-81
2023/10/21 20:16:26;;;;;;;25.42;11.48;;;;;;;16.49;72.48;99634.78;10240769;28;96863;-81
2023/10/21 20:21:29;;;;;;;;;;;;;;;16.46;73.32;99630.53;10250420;28;96884;-81
2023/10/21 20:26:33;;;;;;;19.48;9.43;;;;;;;16.44;73.03;99637.78;10253044;28;96737;-82
2023/10/21 20:31:37;;;;;;;22.65;10.27;;;;;;;16.50;72.79;99642.63;10246473;28;98378;-82
2023/10/21 20:36:41;;;;;;;20.67;9.80;;;;;;;16.53;72.62;99644.22;10235792;28;96832;-82
2023/10/21 20:41:45;;;;;;;17.80;7.85;;;;;;;16.56;72.68;99649.31;10249687;28;98638;-82
2023/10/21 20:46:50;;;;;;;13.13;6.35;;;;;;;16.50;72.97;99642.63;10249877;28;97475;-81
2023/10/21 20:51:55;;;;;;;12.68;6.57;;;;;;;16.50;72.55;99644.44;10250538;28;97045;-81
2023/10/21 20:56:59;;;;;;;14.63;7.07;;;;;;;16.46;72.73;99645.63;10253244;28;96841;-81
2023/10/21 21:02:05;;;;;;;12.32;6.88;;;;;;;16.35;73.39;99648.19;10259285;28;96708;-81
2023/10/21 21:07:08;;;;;;;12.57;6.30;;;;;;;16.35;73.53;99646.38;10252324;28;96811;-80
2023/10/21 21:12:12;;;;;;;15.65;6.70;;;;;;;16.28;73.55;99642.47;10247277;28;96851;-81
2023/10/21 21:17:17;;;;;;;8.38;5.38;;;;;;;16.18;73.38;99640.59;10247895;28;97038;-81
2023/10/21 21:22:21;;;;;;;9.73;5.20;;;;;;;16.19;73.95;99647.59;10251208;28;96805;-82
2023/10/21 21:27:25;;;;;;;12.35;5.60;;;;;;;16.10;74.50;99648.28;10250401;28;96733;-81
2023/10/21 21:32:32;;;;;;;11.02;6.15;;;;;;;15.95;74.81;99644.88;10251067;28;96822;-81
2023/10/21 21:37:36;;;;;;;11.77;5.97;;;;;;;15.88;75.46;99646.28;10249964;28;96819;-81
2023/10/21 21:42:39;;;;;;;15.02;6.38;;;;;;;15.95;74.95;99652.84;10248837;28;96791;-81
2023/10/21 21:47:44;;;;;;;12.43;6.03;;;;;;;15.98;74.55;99642.00;10250260;28;96712;-81
2023/10/21 21:52:47;;;;;;;12.93;6.05;;;;;;;15.99;74.64;99643.72;10250170;28;97798;-81
2023/10/21 21:57:50;;;;;;;10.10;5.20;;;;;;;15.93;75.51;99640.66;10250137;28;96815;-82
2023/10/21 22:02:56;;;;;;;11.27;5.28;;;;;;;15.99;74.57;99653.50;10249263;28;96842;-81
2023/10/21 22:08:00;;;;;;;10.07;5.32;;;;;;;16.03;74.60;99641.69;10248880;28;97321;-81
2023/10/21 22:13:04;;;;;;;10.75;5.15;;;;;;;16.06;73.89;99644.13;10251110;28;96660;-81
2023/10/21 22:18:09;;;;;;;9.57;5.10;;;;;;;15.96;74.81;99635.97;10250077;28;96880;-83
2023/10/21 22:23:13;;;;;;;8.70;4.80;;;;;;;15.98;74.58;99638.53;10252796;28;96737;-83
2023/10/21 22:28:21;;;;;;;13.45;6.13;;;;;;;15.83;75.97;99635.16;10249332;28;96796;-83
2023/10/21 22:33:26;;;;;;;8.25;4.70;;;;;;;15.74;76.13;99625.19;10248483;28;98896;-83
2023/10/21 22:38:30;;;;;;;10.23;4.50;;;;;;;15.78;75.40;99621.38;10247557;28;97193;-83
2023/10/21 22:43:33;;;;;;;9.82;4.50;;;;;;;15.76;75.42;99615.31;10249074;28;96916;-83
2023/10/21 22:48:38;;;;;;;11.20;4.65;;;;;;;15.69;75.24;99606.94;10246991;28;98373;-83
2023/10/21 22:53:41;;;;;;;;;;;;;;;15.75;75.50;99611.81;10247137;28;96796;-83
2023/10/21 22:58:45;;;;;;;8.68;4.15;;;;;;;15.82;74.96;99622.84;10247548;28;97074;-83
2023/10/21 23:03:51;;;;;;;7.65;4.07;;;;;;;15.75;75.38;99621.59;10252591;28;96827;-83
2023/10/21 23:08:55;;;;;;;7.05;3.58;;;;;;;15.74;75.33;99625.19;10254785;28;96804;-82
2023/10/21 23:13:59;;;;;;;7.37;3.87;;;;;;;15.76;75.14;99615.31;10255307;28;97020;-82
2023/10/21 23:19:05;;;;;;;6.97;3.60;;;;;;;15.84;75.07;99607.66;10253439;28;96732;-82
2023/10/21 23:24:09;;;;;;;9.00;4.18;;;;;;;15.82;75.09;99604.28;10254347;28;98310;-82
2023/10/21 23:29:13;;;;;;;7.65;3.63;;;;;;;15.82;75.18;99606.94;10254089;28;96756;-81
2023/10/21 23:34:18;;;;;;;5.53;3.65;;;;;;;15.80;75.36;99616.81;10254795;28;96855;-82
2023/10/21 23:39:22;;;;;;;6.53;3.47;;;;;;;15.75;75.41;99609.16;10253449;28;96746;-82
2023/10/21 23:44:26;;;;;;;7.13;3.72;;;;;;;15.85;75.20;99606.72;10253274;28;97285;-81
2023/10/21 23:49:31;;;;;;;10.60;3.80;;;;;;;15.91;75.09;99604.47;10248421;28;97433;-82
2023/10/21 23:54:34;;;;;;;6.43;3.42;;;;;;;15.80;75.92;99598.22;10252407;28;96737;-82
2023/10/21 23:59:38;;;;;;;6.72;3.97;;;;;;;15.72;76.41;99595.25;10251911;28;96809;-82
